createdAt,value
2023-01-08T00:01:16.633Z,44.13
2023-01-08T00:03:44.920Z,47.17
2023-01-08T00:06:16.504Z,39.57
2023-01-08T00:08:45.804Z,47.60
2023-01-08T00:11:15.232Z,44.10
2023-01-08T00:13:43.370Z,48.40
2023-01-08T00:16:15.067Z,39.37
2023-01-08T00:18:43.158Z,39.97
2023-01-08T00:21:11.529Z,40.23
2023-01-08T00:23:41.528Z,34.63
2023-01-08T00:26:11.174Z,35.23
2023-01-08T00:28:40.034Z,33.33
2023-01-08T00:31:10.221Z,35.30
2023-01-08T00:33:38.550Z,32.83
2023-01-08T00:36:09.945Z,35.97
2023-01-08T00:38:38.599Z,35.13
2023-01-08T00:41:08.446Z,36.67
2023-01-08T00:43:37.353Z,30.23
2023-01-08T00:46:06.297Z,35.73
2023-01-08T00:48:37.493Z,34.17
2023-01-08T00:51:06.409Z,34.90
2023-01-08T00:53:35.258Z,30.10
2023-01-08T00:56:05.189Z,34.43
2023-01-08T00:58:35.228Z,33.53
2023-01-08T01:01:03.588Z,32.67
2023-01-08T01:03:32.522Z,33.10
2023-01-08T01:06:04.416Z,30.83
2023-01-08T01:08:32.616Z,30.67
2023-01-08T01:11:00.739Z,33.33
2023-01-08T01:13:28.830Z,32.33
2023-01-08T01:16:02.412Z,31.33
2023-01-08T01:18:31.457Z,30.27
2023-01-08T01:21:00.112Z,34.77
2023-01-08T01:23:28.151Z,32.43
2023-01-08T01:25:56.304Z,33.27
2023-01-08T01:28:24.348Z,34.20
2023-01-08T01:30:56.736Z,32.27
2023-01-08T01:33:26.256Z,31.23
2023-01-08T01:36:02.192Z,33.33
2023-01-08T01:38:30.786Z,32.93
2023-01-08T01:40:59.293Z,30.83
2023-01-08T01:43:38.977Z,31.47
2023-01-08T01:46:20.088Z,33.10
2023-01-08T01:48:51.740Z,33.40
2023-01-08T01:51:20.758Z,29.23
2023-01-08T01:53:49.467Z,31.97
2023-01-08T01:56:17.995Z,33.17
2023-01-08T01:58:46.121Z,32.07
2023-01-08T02:01:14.498Z,29.27
2023-01-08T02:03:42.802Z,32.27
2023-01-08T02:06:22.625Z,30.63
2023-01-08T02:08:59.838Z,37.47
2023-01-08T02:11:38.214Z,43.60
2023-01-08T02:14:13.227Z,37.00
2023-01-08T02:16:50.841Z,46.20
2023-01-08T02:19:39.070Z,31.33
2023-01-08T02:22:22.179Z,39.60
2023-01-08T02:24:57.589Z,28.90
2023-01-08T02:27:31.752Z,23.70
2023-01-08T02:30:01.836Z,25.37
2023-01-08T02:32:37.479Z,25.90
2023-01-08T02:35:08.392Z,22.07
2023-01-08T02:37:38.338Z,22.53
2023-01-08T02:40:16.283Z,24.03
2023-01-08T02:42:49.003Z,24.07
2023-01-08T02:45:27.551Z,21.87
2023-01-08T02:48:03.156Z,23.07
2023-01-08T02:50:36.750Z,29.20
2023-01-08T02:53:11.207Z,24.03
2023-01-08T02:55:41.956Z,21.80
2023-01-08T02:58:12.929Z,24.73
2023-01-08T03:00:42.433Z,23.60
2023-01-08T03:03:14.069Z,25.27
2023-01-08T03:05:45.037Z,26.07
2023-01-08T03:08:14.077Z,21.90
2023-01-08T03:10:47.453Z,23.70
2023-01-08T03:13:23.536Z,24.60
2023-01-08T03:15:56.577Z,26.30
2023-01-08T03:18:31.417Z,28.50
2023-01-08T03:20:59.771Z,30.60
2023-01-08T03:23:29.167Z,25.27
2023-01-08T03:25:58.514Z,31.87
2023-01-08T03:28:34.237Z,24.60
2023-01-08T03:31:04.231Z,30.73
2023-01-08T03:33:34.534Z,26.77
2023-01-08T03:36:07.512Z,31.13
2023-01-08T03:38:41.780Z,31.27
2023-01-08T03:41:15.137Z,26.73
2023-01-08T03:43:45.168Z,26.47
2023-01-08T03:46:18.146Z,28.30
2023-01-08T03:48:47.239Z,26.27
2023-01-08T03:51:15.305Z,31.00
2023-01-08T03:53:43.439Z,30.47
2023-01-08T03:56:11.407Z,30.53
2023-01-08T03:58:39.546Z,27.17
2023-01-08T04:01:09.159Z,24.80
2023-01-08T04:03:38.387Z,24.37
2023-01-08T04:06:06.816Z,28.47
2023-01-08T04:08:34.945Z,31.47
2023-01-08T04:11:03.061Z,26.83
2023-01-08T04:13:31.126Z,30.63
2023-01-08T04:15:59.343Z,31.30
2023-01-08T04:18:28.794Z,26.57
2023-01-08T04:20:56.925Z,26.50
2023-01-08T04:23:25.084Z,39.30
2023-01-08T04:25:53.456Z,48.07
2023-01-08T04:28:24.875Z,31.53
2023-01-08T04:30:53.114Z,33.80
2023-01-08T04:33:21.272Z,31.70
2023-01-08T04:35:50.732Z,30.43
2023-01-08T04:38:19.055Z,27.77
2023-01-08T04:40:47.284Z,27.07
2023-01-08T04:43:15.361Z,28.07
2023-01-08T04:45:43.412Z,27.97
2023-01-08T04:48:11.489Z,27.80
2023-01-08T04:50:39.633Z,30.73
2023-01-08T04:53:10.099Z,26.97
2023-01-08T04:55:39.741Z,26.93
2023-01-08T04:58:08.434Z,28.23
2023-01-08T05:00:37.006Z,27.73
2023-01-08T05:03:05.200Z,27.13
2023-01-08T05:05:35.627Z,27.27
2023-01-08T05:08:03.791Z,23.80
2023-01-08T05:10:33.364Z,25.77
2023-01-08T05:13:02.003Z,25.30
2023-01-08T05:15:30.558Z,40.43
2023-01-08T05:18:02.867Z,31.00
2023-01-08T05:20:31.101Z,25.87
2023-01-08T05:22:59.496Z,34.87
2023-01-08T05:25:27.590Z,33.37
2023-01-08T05:27:57.096Z,28.80
2023-01-08T05:30:25.735Z,27.63
2023-01-08T05:32:53.793Z,26.60
2023-01-08T05:35:21.824Z,26.47
2023-01-08T05:37:49.895Z,22.90
2023-01-08T05:40:18.254Z,20.73
2023-01-08T05:42:46.346Z,21.17
2023-01-08T05:45:16.937Z,27.67
2023-01-08T05:47:45.439Z,31.07
2023-01-08T05:50:13.649Z,33.23
2023-01-08T05:52:41.740Z,22.30
2023-01-08T05:55:11.415Z,21.63
2023-01-08T05:57:39.533Z,20.77
2023-01-08T06:00:10.317Z,19.03
2023-01-08T06:02:39.992Z,17.27
2023-01-08T06:05:08.596Z,17.37
2023-01-08T06:07:36.641Z,19.13
2023-01-08T06:10:06.588Z,19.37
2023-01-08T06:12:35.035Z,21.53
2023-01-08T06:15:04.434Z,19.23
2023-01-08T06:17:32.616Z,22.00
2023-01-08T06:20:02.364Z,18.63
2023-01-08T06:22:32.381Z,23.00
2023-01-08T06:25:01.580Z,22.60
2023-01-08T06:27:29.718Z,30.87
2023-01-08T06:29:58.232Z,21.07
2023-01-08T06:32:26.391Z,23.00
2023-01-08T06:34:55.163Z,26.63
2023-01-08T06:37:24.639Z,22.70
2023-01-08T06:39:53.488Z,22.70
2023-01-08T06:42:21.630Z,25.03
2023-01-08T06:44:50.048Z,24.17
2023-01-08T06:47:18.073Z,27.23
2023-01-08T06:49:46.144Z,23.03
2023-01-08T06:52:14.301Z,26.10
2023-01-08T06:54:43.904Z,29.87
2023-01-08T06:57:12.090Z,30.00
2023-01-08T06:59:40.164Z,26.23
2023-01-08T07:02:08.460Z,25.70
2023-01-08T07:04:36.635Z,29.37
2023-01-08T07:07:04.917Z,28.37
2023-01-08T07:09:34.493Z,23.47
2023-01-08T07:12:04.079Z,24.77
2023-01-08T07:14:32.124Z,28.00
2023-01-08T07:17:00.110Z,28.10
2023-01-08T07:19:28.767Z,23.87
2023-01-08T07:21:56.869Z,30.13
2023-01-08T07:24:24.933Z,28.93
2023-01-08T07:26:53.072Z,32.70
2023-01-08T07:29:22.478Z,24.90
2023-01-08T07:31:50.553Z,33.37
2023-01-08T07:34:18.763Z,27.20
2023-01-08T07:36:48.742Z,26.20
2023-01-08T07:39:16.932Z,26.07
2023-01-08T07:41:45.544Z,27.23
2023-01-08T07:44:13.949Z,23.77
2023-01-08T07:46:43.631Z,26.43
2023-01-08T07:49:11.809Z,27.00
2023-01-08T07:51:39.978Z,29.80
2023-01-08T07:54:08.209Z,27.50
2023-01-08T07:56:36.950Z,24.97
2023-01-08T07:59:05.219Z,30.13
2023-01-08T08:01:36.231Z,32.60
2023-01-08T08:04:08.527Z,25.50
2023-01-08T08:06:36.747Z,25.67
2023-01-08T08:09:05.054Z,24.00
2023-01-08T08:11:34.003Z,21.33
2023-01-08T08:14:02.139Z,24.90
2023-01-08T08:16:30.309Z,28.43
2023-01-08T08:19:00.193Z,27.97
2023-01-08T08:21:30.073Z,27.03
2023-01-08T08:23:58.478Z,23.80
2023-01-08T08:26:26.640Z,24.30
2023-01-08T08:28:54.750Z,25.97
2023-01-08T08:31:23.255Z,32.83
2023-01-08T08:33:51.434Z,25.87
2023-01-08T08:36:19.486Z,26.30
2023-01-08T08:38:49.844Z,21.67
2023-01-08T08:41:18.782Z,20.83
2023-01-08T08:43:46.939Z,20.33
2023-01-08T08:46:14.985Z,20.87
2023-01-08T08:48:43.125Z,21.53
2023-01-08T08:51:11.269Z,17.83
2023-01-08T08:53:39.378Z,16.20
2023-01-08T08:56:09.622Z,16.70
2023-01-08T08:58:37.908Z,17.27
2023-01-08T09:01:06.402Z,16.43
2023-01-08T09:03:34.569Z,16.53
2023-01-08T09:06:03.308Z,15.97
2023-01-08T09:08:31.475Z,11.90
2023-01-08T09:10:59.562Z,16.40
2023-01-08T09:13:29.716Z,15.63
2023-01-08T09:15:59.660Z,14.40
2023-01-08T09:18:29.470Z,13.63
2023-01-08T09:20:57.826Z,12.70
2023-01-08T09:23:25.900Z,15.77
2023-01-08T09:26:00.679Z,12.23
2023-01-08T09:28:30.394Z,15.00
2023-01-08T09:31:01.947Z,23.63
2023-01-08T09:33:30.314Z,12.60
2023-01-08T09:35:58.592Z,15.67
2023-01-08T09:38:29.620Z,10.43
2023-01-08T09:41:03.766Z,11.47
2023-01-08T09:43:38.768Z,11.40
2023-01-08T09:46:08.825Z,13.17
2023-01-08T09:48:39.324Z,13.80
2023-01-08T09:51:10.801Z,10.57
2023-01-08T09:53:38.921Z,13.67
2023-01-08T09:56:14.369Z,11.53
2023-01-08T09:58:46.856Z,10.97
2023-01-08T10:01:18.950Z,12.63
2023-01-08T10:03:51.261Z,20.87
2023-01-08T10:06:19.754Z,12.30
2023-01-08T10:08:47.970Z,10.57
2023-01-08T10:11:17.459Z,11.93
2023-01-08T10:13:52.269Z,11.03
2023-01-08T10:16:30.460Z,11.97
2023-01-08T10:18:59.947Z,11.70
2023-01-08T10:21:33.232Z,10.53
2023-01-08T10:24:01.376Z,11.10
2023-01-08T10:26:32.833Z,12.30
2023-01-08T10:29:10.720Z,10.90
2023-01-08T10:31:47.268Z,12.50
2023-01-08T10:34:27.843Z,14.97
2023-01-08T10:36:57.243Z,12.43
2023-01-08T10:39:28.465Z,12.20
2023-01-08T10:42:07.780Z,10.87
2023-01-08T10:44:38.271Z,10.97
2023-01-08T10:47:07.688Z,14.30
2023-01-08T10:49:39.939Z,12.80
2023-01-08T10:52:27.034Z,10.63
2023-01-08T10:54:56.047Z,11.83
2023-01-08T10:57:27.539Z,11.20
2023-01-08T10:59:57.283Z,9.20
2023-01-08T11:02:37.934Z,12.60
2023-01-08T11:05:11.520Z,9.83
2023-01-08T11:07:41.382Z,10.83
2023-01-08T11:10:22.868Z,11.97
2023-01-08T11:12:57.455Z,11.30
2023-01-08T11:15:32.822Z,16.37
2023-01-08T11:18:12.888Z,16.40
2023-01-08T11:20:42.201Z,10.63
2023-01-08T11:23:17.952Z,10.23
2023-01-08T11:25:51.161Z,11.43
2023-01-08T11:28:27.358Z,11.40
2023-01-08T11:31:05.463Z,11.57
2023-01-08T11:33:36.363Z,12.93
2023-01-08T11:36:14.130Z,11.47
2023-01-08T11:38:43.094Z,13.30
2023-01-08T11:41:26.273Z,13.27
2023-01-08T11:44:10.875Z,13.33
2023-01-08T11:46:47.794Z,13.93
2023-01-08T11:49:52.379Z,11.73
2023-01-08T11:52:35.538Z,17.83
2023-01-08T11:55:31.125Z,15.47
2023-01-08T11:58:23.113Z,15.53
2023-01-08T12:01:06.199Z,12.07
2023-01-08T12:03:41.886Z,11.23
2023-01-08T12:06:21.992Z,10.23
2023-01-08T12:09:01.702Z,15.47
2023-01-08T12:11:32.601Z,17.63
2023-01-08T12:14:16.273Z,18.27
2023-01-08T12:17:02.697Z,12.13
2023-01-08T12:19:50.400Z,13.50
2023-01-08T12:22:32.334Z,10.67
2023-01-08T12:25:27.847Z,11.70
2023-01-08T12:28:15.254Z,14.47
2023-01-08T12:31:02.757Z,11.53
2023-01-08T12:33:38.846Z,14.50
2023-01-08T12:36:14.435Z,9.60
2023-01-08T12:38:44.903Z,11.63
2023-01-08T12:41:14.564Z,13.03
2023-01-08T12:43:51.890Z,10.77
2023-01-08T12:46:20.709Z,17.20
2023-01-08T12:48:52.013Z,18.13
2023-01-08T12:51:29.848Z,11.23
2023-01-08T12:54:06.370Z,14.00
2023-01-08T12:56:44.180Z,10.73
2023-01-08T12:59:20.706Z,13.10
2023-01-08T13:01:53.987Z,12.47
2023-01-08T13:04:22.274Z,11.97
2023-01-08T13:07:06.224Z,11.40
2023-01-08T13:09:34.914Z,11.40
2023-01-08T13:12:03.167Z,14.40
2023-01-08T13:14:42.615Z,13.50
2023-01-08T13:17:19.162Z,10.60
2023-01-08T13:19:53.810Z,10.63
2023-01-08T13:22:32.790Z,11.37
2023-01-08T13:25:30.806Z,9.83
2023-01-08T13:28:00.059Z,10.00
2023-01-08T13:30:39.395Z,11.83
2023-01-08T13:33:38.237Z,13.93
2023-01-08T13:36:18.646Z,10.67
2023-01-08T13:39:00.044Z,13.13
2023-01-08T13:41:30.071Z,14.97
2023-01-08T13:44:04.429Z,14.97
2023-01-08T13:46:35.929Z,11.83
2023-01-08T13:49:06.455Z,15.60
2023-01-08T13:51:43.896Z,11.80
2023-01-08T13:54:23.392Z,7.87
2023-01-08T13:56:56.211Z,9.83
2023-01-08T13:59:35.337Z,8.73
2023-01-08T14:02:03.628Z,11.63
2023-01-08T14:04:31.784Z,12.90
2023-01-08T14:07:16.311Z,13.57
2023-01-08T14:09:45.813Z,9.00
2023-01-08T14:12:16.275Z,14.50
2023-01-08T14:14:49.644Z,23.60
2023-01-08T14:17:19.241Z,19.70
2023-01-08T14:19:47.803Z,74.87
2023-01-08T14:22:21.272Z,27.50
2023-01-08T14:24:56.794Z,16.27
2023-01-08T14:27:26.971Z,12.73
2023-01-08T14:29:55.522Z,12.67
2023-01-08T14:32:25.150Z,12.30
2023-01-08T14:34:55.216Z,16.60
2023-01-08T14:37:23.586Z,13.50
2023-01-08T14:39:54.884Z,18.50
2023-01-08T14:42:47.358Z,10.53
2023-01-08T14:45:21.648Z,14.70
2023-01-08T14:47:52.465Z,10.93
2023-01-08T14:50:25.110Z,14.07
2023-01-08T14:52:57.272Z,18.70
2023-01-08T14:55:28.024Z,17.77
2023-01-08T14:57:58.480Z,19.43
2023-01-08T15:00:31.151Z,22.73
2023-01-08T15:02:59.395Z,22.80
2023-01-08T15:05:30.376Z,23.57
2023-01-08T15:08:01.826Z,22.27
2023-01-08T15:10:37.724Z,25.90
2023-01-08T15:13:08.541Z,22.00
2023-01-08T15:15:42.940Z,18.20
2023-01-08T15:18:14.055Z,17.67
2023-01-08T15:20:46.406Z,22.17
2023-01-08T15:23:28.428Z,21.60
2023-01-08T15:25:58.208Z,20.63
2023-01-08T15:28:27.570Z,21.67
2023-01-08T15:30:57.790Z,30.87
2023-01-08T15:33:30.530Z,27.93
2023-01-08T15:35:58.586Z,29.30
2023-01-08T15:38:26.736Z,30.10
2023-01-08T15:40:57.420Z,29.13
2023-01-08T15:43:24.457Z,27.20
2023-01-08T15:45:52.712Z,24.67
2023-01-08T15:48:20.818Z,29.17
2023-01-08T15:50:49.116Z,25.17
2023-01-08T15:53:22.972Z,31.30
2023-01-08T15:55:51.832Z,25.07
2023-01-08T15:58:21.350Z,36.33
2023-01-08T16:00:49.582Z,42.30
2023-01-08T16:03:17.790Z,34.23
2023-01-08T16:05:45.934Z,33.20
2023-01-08T16:08:13.983Z,44.80
2023-01-08T16:10:42.081Z,47.00
2023-01-08T16:13:12.027Z,46.43
2023-01-08T16:15:41.913Z,47.30
2023-01-08T16:18:10.178Z,52.73
2023-01-08T16:20:39.137Z,50.97
2023-01-08T16:23:07.453Z,58.47
2023-01-08T16:25:35.991Z,60.20
2023-01-08T16:28:04.316Z,55.73
2023-01-08T16:30:32.420Z,60.27
2023-01-08T16:33:02.096Z,56.20
2023-01-08T16:35:33.403Z,56.57
2023-01-08T16:38:01.586Z,54.97
2023-01-08T16:40:30.047Z,59.13
2023-01-08T16:43:02.013Z,64.10
2023-01-08T16:45:33.212Z,62.77
2023-01-08T16:48:03.392Z,40.93
2023-01-08T16:50:33.751Z,49.67
2023-01-08T16:53:02.045Z,42.97
2023-01-08T16:55:30.326Z,36.07
2023-01-08T16:57:58.423Z,40.63
2023-01-08T17:00:26.649Z,44.40
2023-01-08T17:02:55.007Z,75.67
2023-01-08T17:05:24.819Z,47.33
2023-01-08T17:07:53.754Z,38.13
2023-01-08T17:10:22.323Z,50.60
2023-01-08T17:12:50.538Z,46.07
2023-01-08T17:15:19.502Z,41.83
2023-01-08T17:17:47.559Z,66.47
2023-01-08T17:20:15.960Z,45.13
2023-01-08T17:22:45.762Z,40.13
2023-01-08T17:25:14.200Z,70.17
2023-01-08T17:27:43.156Z,79.53
2023-01-08T17:30:13.066Z,76.10
2023-01-08T17:32:41.296Z,60.07
2023-01-08T17:35:09.901Z,53.73
2023-01-08T17:37:39.072Z,61.43
2023-01-08T17:40:13.248Z,66.03
2023-01-08T17:42:42.208Z,76.33
2023-01-08T17:45:11.329Z,74.77
2023-01-08T17:47:39.546Z,77.70
2023-01-08T17:50:08.078Z,58.53
2023-01-08T17:52:38.243Z,71.47
2023-01-08T17:55:07.653Z,63.47
2023-01-08T17:57:37.236Z,54.87
2023-01-08T18:00:06.243Z,64.30
2023-01-08T18:02:34.380Z,49.13
2023-01-08T18:05:02.706Z,49.80
2023-01-08T18:07:30.852Z,67.93
2023-01-08T18:09:59.018Z,58.57
2023-01-08T18:12:27.383Z,81.30
2023-01-08T18:14:56.955Z,60.10
2023-01-08T18:17:25.805Z,66.37
2023-01-08T18:19:54.158Z,62.70
2023-01-08T18:22:22.265Z,59.03
2023-01-08T18:24:50.404Z,59.67
2023-01-08T18:27:18.492Z,68.23
2023-01-08T18:29:46.663Z,59.27
2023-01-08T18:32:18.497Z,67.57
2023-01-08T18:34:48.460Z,74.23
2023-01-08T18:37:16.534Z,95.90
2023-01-08T18:39:44.760Z,86.83
2023-01-08T18:42:28.183Z,81.27
2023-01-08T18:44:57.515Z,278.13
2023-01-08T18:47:29.086Z,120.73
2023-01-08T18:49:59.203Z,131.73
2023-01-08T18:52:28.071Z,123.83
2023-01-08T18:54:57.814Z,135.67
2023-01-08T18:57:26.128Z,114.20
2023-01-08T18:59:54.910Z,99.83
2023-01-08T19:02:25.101Z,119.80
2023-01-08T19:04:55.483Z,117.00
2023-01-08T19:07:23.703Z,112.87
2023-01-08T19:09:52.025Z,109.30
2023-01-08T19:12:20.573Z,88.80
2023-01-08T19:14:49.540Z,95.80
2023-01-08T19:17:17.798Z,88.03
2023-01-08T19:19:46.550Z,77.33
2023-01-08T19:22:16.143Z,88.97
2023-01-08T19:24:44.425Z,82.47
2023-01-08T19:27:12.491Z,124.03
2023-01-08T19:29:40.717Z,92.10
2023-01-08T19:32:09.596Z,89.37
2023-01-08T19:34:37.847Z,84.60
2023-01-08T19:37:05.934Z,84.00
2023-01-08T19:39:35.579Z,77.90
2023-01-08T19:42:23.803Z,82.80
2023-01-08T19:44:51.873Z,85.30
2023-01-08T19:47:20.059Z,85.00
2023-01-08T19:49:49.012Z,84.83
2023-01-08T19:52:18.294Z,88.77
2023-01-08T19:54:48.218Z,98.97
2023-01-08T19:57:16.348Z,104.10
2023-01-08T19:59:44.764Z,109.63
2023-01-08T20:02:13.928Z,98.17
2023-01-08T20:04:43.594Z,105.87
2023-01-08T20:07:12.282Z,104.50
2023-01-08T20:09:40.502Z,103.33
2023-01-08T20:12:14.088Z,101.83
2023-01-08T20:14:42.512Z,76.83
2023-01-08T20:17:11.858Z,83.10
2023-01-08T20:19:40.319Z,84.00
2023-01-08T20:22:08.804Z,87.90
2023-01-08T20:24:37.061Z,86.43
2023-01-08T20:27:06.056Z,70.80
2023-01-08T20:29:35.705Z,67.00
2023-01-08T20:32:05.108Z,66.33
2023-01-08T20:34:33.597Z,83.70
2023-01-08T20:37:01.798Z,70.17
2023-01-08T20:39:30.045Z,79.07
2023-01-08T20:42:04.372Z,69.93
2023-01-08T20:44:33.364Z,66.80
2023-01-08T20:47:03.644Z,67.83
2023-01-08T20:49:32.282Z,70.10
2023-01-08T20:52:00.969Z,70.27
2023-01-08T20:54:31.649Z,74.03
2023-01-08T20:57:01.310Z,66.03
2023-01-08T20:59:29.661Z,69.63
2023-01-08T21:01:57.823Z,70.90
2023-01-08T21:04:27.339Z,75.30
2023-01-08T21:06:55.511Z,77.27
2023-01-08T21:09:23.649Z,73.27
2023-01-08T21:11:51.976Z,81.13
2023-01-08T21:14:20.106Z,79.80
2023-01-08T21:16:48.357Z,72.57
2023-01-08T21:19:16.571Z,71.10
2023-01-08T21:21:46.561Z,71.47
2023-01-08T21:24:16.277Z,69.10
2023-01-08T21:26:47.112Z,70.50
2023-01-08T21:29:19.930Z,69.57
2023-01-08T21:31:48.782Z,74.77
2023-01-08T21:34:16.993Z,73.37
2023-01-08T21:36:47.257Z,70.93
2023-01-08T21:39:15.447Z,67.67
2023-01-08T21:42:09.721Z,71.03
2023-01-08T21:44:55.139Z,67.93
2023-01-08T21:47:23.545Z,67.47
2023-01-08T21:49:52.011Z,56.30
2023-01-08T21:52:38.729Z,55.17
2023-01-08T21:55:07.468Z,43.07
2023-01-08T21:57:39.937Z,54.13
2023-01-08T22:00:09.395Z,47.43
2023-01-08T22:02:38.121Z,47.37
2023-01-08T22:05:07.195Z,51.10
2023-01-08T22:07:37.031Z,45.40
2023-01-08T22:10:08.533Z,45.60
2023-01-08T22:12:36.751Z,43.37
2023-01-08T22:15:05.253Z,46.63
2023-01-08T22:17:33.341Z,43.77
2023-01-08T22:20:02.089Z,45.17
2023-01-08T22:22:30.354Z,46.40
2023-01-08T22:24:59.829Z,49.77
2023-01-08T22:27:28.030Z,53.33
2023-01-08T22:29:56.212Z,60.00
2023-01-08T22:32:24.885Z,69.37
2023-01-08T22:34:53.596Z,73.30
2023-01-08T22:37:22.810Z,67.13
2023-01-08T22:39:50.991Z,62.33
2023-01-08T22:42:20.566Z,63.57
2023-01-08T22:44:50.605Z,60.60
2023-01-08T22:47:18.664Z,62.77
2023-01-08T22:49:46.806Z,67.90
2023-01-08T22:52:15.007Z,57.27
2023-01-08T22:54:43.219Z,62.10
2023-01-08T22:57:11.399Z,62.60
2023-01-08T22:59:40.905Z,54.50
2023-01-08T23:02:09.013Z,57.80
2023-01-08T23:04:37.619Z,59.47
2023-01-08T23:07:06.284Z,52.67
2023-01-08T23:09:34.430Z,54.67
2023-01-08T23:12:02.560Z,56.90
2023-01-08T23:14:30.784Z,59.40
2023-01-08T23:17:00.198Z,53.17
2023-01-08T23:19:29.291Z,46.83
2023-01-08T23:21:57.516Z,56.90
2023-01-08T23:24:27.300Z,53.63
2023-01-08T23:26:56.756Z,50.57
2023-01-08T23:29:29.902Z,49.73
2023-01-08T23:31:59.877Z,50.70
2023-01-08T23:34:28.069Z,45.50
2023-01-08T23:36:56.155Z,49.63
2023-01-08T23:39:27.249Z,47.97
2023-01-08T23:41:56.289Z,47.67
2023-01-08T23:44:24.607Z,44.27
2023-01-08T23:46:52.813Z,45.10
2023-01-08T23:49:23.605Z,47.73
2023-01-08T23:51:51.612Z,45.83
2023-01-08T23:54:20.076Z,45.40
2023-01-08T23:56:48.280Z,42.77
2023-01-08T23:59:16.601Z,45.93
